Time;durP1;ratioP1;P1;durP2;ratioP2;P2;SDS_P1;SDS_P2;PMS_P1;PMS_P2;Temp;Humidity;BMP_temperature;BMP_pressure;BME280_temperature;BME280_humidity;BME280_pressure;Samples;Min_cycle;Max_cycle;Signal;HPM_P1;HPM_P2
2022/01/10 00:02:08;;;;;;;860.67;775.50;;;0.40;99.90;;;;;;4995210;28;20473;-83
2022/01/10 00:04:35;;;;;;;863.40;777.50;;;0.40;99.90;;;;;;4994437;28;20478;-82
2022/01/10 00:07:03;;;;;;;871.80;785.83;;;0.30;99.90;;;;;;4994284;28;20466;-83
2022/01/10 00:09:31;;;;;;;861.00;774.07;;;0.10;99.90;;;;;;4994326;28;20454;-82
2022/01/10 00:11:57;;;;;;;856.63;770.63;;;0.20;99.90;;;;;;4994635;28;20454;-82
2022/01/10 00:14:24;;;;;;;860.07;773.10;;;0.30;99.90;;;;;;4994500;28;20474;-82
2022/01/10 00:16:51;;;;;;;870.23;784.07;;;0.50;99.90;;;;;;4994511;28;20458;-83
2022/01/10 00:19:19;;;;;;;865.90;779.30;;;0.70;99.90;;;;;;4994430;28;20478;-83
2022/01/10 00:21:46;;;;;;;874.37;787.73;;;0.80;99.90;;;;;;4994498;28;20476;-82
2022/01/10 00:24:12;;;;;;;870.87;784.33;;;0.70;99.90;;;;;;4993948;28;20454;-82
2022/01/10 00:26:41;;;;;;;872.70;786.47;;;0.70;99.90;;;;;;4995410;28;20454;-83
2022/01/10 00:29:07;;;;;;;888.60;801.90;;;0.70;99.90;;;;;;4994603;28;20843;-83
2022/01/10 00:31:34;;;;;;;887.00;800.67;;;0.70;99.90;;;;;;4994641;28;20967;-83
2022/01/10 00:34:01;;;;;;;884.00;797.43;;;0.70;99.90;;;;;;4994916;28;20460;-83
2022/01/10 00:36:27;;;;;;;868.83;782.20;;;0.70;99.90;;;;;;4994325;28;20460;-83
2022/01/10 00:38:54;;;;;;;884.87;798.70;;;0.70;99.90;;;;;;4995215;28;20857;-84
2022/01/10 00:41:21;;;;;;;870.07;783.50;;;0.60;99.90;;;;;;4994227;28;20450;-83
2022/01/10 00:43:50;;;;;;;876.63;788.23;;;0.50;99.90;;;;;;4994388;28;20959;-83
2022/01/10 00:46:18;;;;;;;856.73;770.47;;;0.60;99.90;;;;;;4994534;28;20478;-83
2022/01/10 00:48:45;;;;;;;862.07;776.87;;;0.60;99.90;;;;;;4994819;28;20831;-83
2022/01/10 00:51:12;;;;;;;870.67;783.30;;;0.50;99.90;;;;;;4994658;28;20605;-83
2022/01/10 00:53:38;;;;;;;882.70;795.70;;;0.40;99.90;;;;;;4994697;28;20461;-83
2022/01/10 00:56:08;;;;;;;884.67;797.93;;;0.20;99.90;;;;;;4993888;28;20483;-83
2022/01/10 00:58:36;;;;;;;885.40;797.27;;;0.10;99.90;;;;;;4994111;28;20492;-83
2022/01/10 01:01:04;;;;;;;878.83;793.33;;;0.10;99.90;;;;;;4994920;28;20458;-83
2022/01/10 01:03:31;;;;;;;880.27;794.90;;;0.20;99.90;;;;;;4994325;28;20450;-83
2022/01/10 01:05:58;;;;;;;890.13;803.90;;;0.00;99.90;;;;;;4994463;28;21037;-83
2022/01/10 01:08:26;;;;;;;878.63;792.83;;;-0.10;99.90;;;;;;4994317;28;20783;-83
2022/01/10 01:13:53;;;;;;;860.60;773.60;;;0.20;99.90;;;;;;5081762;27;1291179;-82
2022/01/10 01:16:31;;;;;;;871.10;784.20;;;0.40;99.90;;;;;;5092949;28;20512;-82
2022/01/10 01:24:25;;;;;;;873.57;785.90;;;0.40;99.90;;;;;;5092956;28;20491;-81
2022/01/10 01:26:53;;;;;;;884.77;796.20;;;0.30;99.90;;;;;;5093160;28;20476;-81
2022/01/10 01:29:24;;;;;;;888.40;800.00;;;0.40;99.90;;;;;;5093076;28;20838;-81
2022/01/10 01:31:51;;;;;;;897.53;809.63;;;0.30;99.90;;;;;;5092695;28;20484;-82
2022/01/10 01:34:19;;;;;;;896.53;806.60;;;0.30;99.90;;;;;;5092563;28;20458;-81
2022/01/10 01:36:50;;;;;;;908.47;819.10;;;0.30;99.90;;;;;;5092226;28;20450;-81
2022/01/10 01:39:20;;;;;;;904.17;814.33;;;0.30;99.90;;;;;;5092334;28;20445;-81
2022/01/10 01:41:47;;;;;;;901.10;812.10;;;0.30;99.90;;;;;;5092642;28;20452;-81
2022/01/10 01:44:15;;;;;;;893.55;805.83;;;0.30;99.90;;;;;;5091833;28;20833;-81
2022/01/10 01:46:43;;;;;;;908.63;819.30;;;0.30;99.90;;;;;;5091967;28;20192;-81
2022/01/10 01:49:11;;;;;;;904.70;816.17;;;0.30;99.90;;;;;;5091690;28;20449;-82
2022/01/10 01:51:38;;;;;;;908.13;818.93;;;0.40;99.90;;;;;;5091779;28;21005;-83
2022/01/10 01:54:06;;;;;;;892.50;803.10;;;0.50;99.90;;;;;;5092020;28;20453;-81
2022/01/10 01:56:33;;;;;;;907.93;817.03;;;0.60;99.90;;;;;;5091894;28;20450;-82
2022/01/10 01:58:59;;;;;;;901.77;812.37;;;0.70;99.90;;;;;;5091783;28;20456;-81
2022/01/10 02:01:28;;;;;;;903.10;813.80;;;0.70;99.90;;;;;;5092209;28;20462;-81
2022/01/10 02:03:56;;;;;;;881.93;792.93;;;0.70;99.90;;;;;;5091701;28;20449;-83
2022/01/10 02:06:22;;;;;;;880.35;791.63;;;0.80;99.90;;;;;;5091819;28;20478;-81
2022/01/10 02:08:49;;;;;;;886.63;795.03;;;0.80;99.90;;;;;;5091894;28;20192;-82
2022/01/10 02:11:16;;;;;;;894.80;804.50;;;0.90;99.90;;;;;;5091645;28;20453;-82
2022/01/10 02:13:46;;;;;;;879.53;790.43;;;0.90;99.90;;;;;;5092306;28;20476;-82
2022/01/10 02:16:32;;;;;;;858.30;770.40;;;1.00;99.90;;;;;;5092091;28;20474;-82
2022/01/10 02:19:03;;;;;;;875.40;785.63;;;1.10;99.90;;;;;;5072930;28;20961;-82
2022/01/10 02:21:34;;;;;;;877.47;788.27;;;1.00;99.90;;;;;;5074436;28;20483;-82
2022/01/10 02:24:06;;;;;;;881.00;791.77;;;0.90;99.90;;;;;;5085258;28;20458;-81
2022/01/10 02:26:41;;;;;;;894.20;803.80;;;0.90;99.90;;;;;;5079073;28;20447;-82
2022/01/10 02:29:12;;;;;;;900.23;810.20;;;0.80;99.90;;;;;;5079281;28;20485;-82
2022/01/10 02:31:44;;;;;;;910.57;820.37;;;0.70;99.90;;;;;;5078957;28;20479;-82
2022/01/10 02:34:16;;;;;;;903.03;812.10;;;0.50;99.90;;;;;;5078806;28;20446;-82
2022/01/10 02:36:46;;;;;;;907.80;818.53;;;0.50;99.90;;;;;;5079106;28;20443;-81
2022/01/10 02:39:19;;;;;;;905.65;815.00;;;0.50;99.90;;;;;;5078987;28;20459;-81
2022/01/10 02:41:49;;;;;;;919.77;830.20;;;0.40;99.90;;;;;;5078931;28;20196;-82
2022/01/10 02:44:21;;;;;;;911.43;822.40;;;0.20;99.90;;;;;;5079230;28;20928;-82
2022/01/10 02:46:51;;;;;;;927.03;837.73;;;0.20;99.90;;;;;;5079051;28;20450;-81
2022/01/10 02:49:25;;;;;;;901.77;812.57;;;0.00;99.90;;;;;;5078500;28;20450;-82
2022/01/10 02:51:54;;;;;;;912.10;825.40;;;-0.10;99.90;;;;;;5078440;28;20453;-81
2022/01/10 02:54:29;;;;;;;915.50;828.53;;;-0.20;99.90;;;;;;5078318;28;20557;-81
2022/01/10 02:56:58;;;;;;;909.00;822.53;;;-0.40;99.90;;;;;;5078726;28;20485;-82
2022/01/10 02:59:26;;;;;;;917.17;828.80;;;-0.40;99.90;;;;;;5078308;28;20938;-82
2022/01/10 03:01:54;;;;;;;909.37;820.63;;;-0.60;99.90;;;;;;5078044;28;20210;-81
2022/01/10 03:04:23;;;;;;;907.40;819.20;;;-0.60;99.90;;;;;;5077502;28;20982;-81
2022/01/10 03:06:50;;;;;;;901.92;814.38;;;-0.80;99.90;;;;;;5077738;28;20814;-81
2022/01/10 03:09:21;;;;;;;916.50;828.13;;;-0.80;99.90;;;;;;5077890;28;20297;-81
2022/01/10 03:11:48;;;;;;;911.53;823.00;;;-0.80;99.90;;;;;;5077564;28;20443;-82
2022/01/10 03:14:16;;;;;;;910.23;822.13;;;-0.70;99.90;;;;;;5076916;28;20212;-81
2022/01/10 03:16:48;;;;;;;904.80;815.40;;;-0.60;99.90;;;;;;5077201;28;20472;-81
2022/01/10 03:19:20;;;;;;;914.00;825.30;;;-0.50;99.90;;;;;;5076881;28;20445;-81
2022/01/10 03:21:47;;;;;;;913.30;825.67;;;-0.40;99.90;;;;;;5077099;28;20446;-81
2022/01/10 03:24:14;;;;;;;915.90;828.47;;;-0.50;99.90;;;;;;5077318;28;20500;-81
2022/01/10 03:26:43;;;;;;;920.33;832.07;;;-0.70;99.90;;;;;;5076689;28;20503;-81
2022/01/10 03:29:17;;;;;;;926.40;836.90;;;-0.70;99.90;;;;;;5076603;28;20447;-82
2022/01/10 03:31:47;;;;;;;932.40;843.27;;;-0.70;99.90;;;;;;5076411;28;20195;-82
2022/01/10 03:34:14;;;;;;;917.10;828.80;;;-0.50;99.90;;;;;;5076073;28;20509;-81
2022/01/10 03:36:41;;;;;;;924.63;836.73;;;-0.50;99.90;;;;;;5075277;28;20839;-81
2022/01/10 03:39:13;;;;;;;916.53;829.53;;;-0.60;99.90;;;;;;5076383;28;20541;-81
2022/01/10 03:41:42;;;;;;;916.63;828.30;;;-0.60;99.90;;;;;;5076055;28;20443;-81
2022/01/10 03:44:10;;;;;;;925.43;836.93;;;-0.70;99.90;;;;;;5076286;28;20200;-81
2022/01/10 03:46:37;;;;;;;914.53;827.70;;;-0.70;99.90;;;;;;5075906;28;20507;-81
2022/01/10 03:49:13;;;;;;;922.57;835.33;;;-0.70;99.90;;;;;;5075610;28;20455;-81
2022/01/10 03:51:41;;;;;;;921.70;834.10;;;-0.60;99.90;;;;;;5075149;28;20465;-81
2022/01/10 03:54:11;;;;;;;919.17;832.08;;;-0.60;99.90;;;;;;5075903;28;20223;-81
2022/01/10 03:56:48;;;;;;;903.83;817.63;;;-0.70;99.90;;;;;;5075686;28;20584;-81
2022/01/10 03:59:15;;;;;;;905.13;817.03;;;-0.60;99.90;;;;;;5075655;28;20282;-82
2022/01/10 04:01:52;;;;;;;904.40;816.47;;;-0.60;99.90;;;;;;5075657;28;20447;-81
2022/01/10 04:04:22;;;;;;;909.53;822.03;;;-0.70;99.90;;;;;;5075388;28;20204;-81
2022/01/10 04:07:07;;;;;;;908.73;821.43;;;-0.60;99.90;;;;;;5076296;28;20459;-81
2022/01/10 04:13:14;;;;;;;907.53;818.07;;;-0.70;99.90;;;;;;5075246;28;20466;-82
2022/01/10 04:16:22;;;;;;;922.42;833.33;;;-0.80;99.90;;;;;;5076565;28;20542;-83
2022/01/10 04:25:33;;;;;;;896.47;806.07;;;-0.70;99.90;;;;;;5068915;28;20458;-82
2022/01/10 04:28:20;;;;;;;909.63;819.03;;;-0.60;99.90;;;;;;5074604;28;20447;-82
2022/01/10 04:46:45;;;;;;;888.93;795.77;;;0.00;99.90;;;;;;5009059;28;20973;-81
2022/01/10 04:49:26;;;;;;;891.93;797.47;;;0.20;99.90;;;;;;5057795;28;20945;-82
2022/01/10 04:52:17;;;;;;;909.10;810.87;;;0.30;99.90;;;;;;5079104;28;20442;-83
2022/01/10 04:54:53;;;;;;;891.83;797.33;;;0.40;99.90;;;;;;5077590;28;20557;-83
2022/01/10 04:57:29;;;;;;;852.83;759.70;;;0.50;99.90;;;;;;5077661;28;20451;-81
2022/01/10 05:00:20;;;;;;;848.20;754.20;;;0.70;99.90;;;;;;5076483;28;20450;-83
2022/01/10 05:09:04;;;;;;;860.90;762.97;;;0.90;99.90;;;;;;5057021;28;20512;-82
2022/01/10 05:11:58;;;;;;;863.10;767.60;;;1.00;99.90;;;;;;5079227;28;20461;-82
2022/01/10 05:18:10;;;;;;;;;;;;;;;;;;;;;
2022/01/10 05:20:52;;;;;;;860.73;766.70;;;1.00;99.90;;;;;;5078186;28;20446;-82
2022/01/10 05:23:42;;;;;;;843.03;749.67;;;1.10;99.90;;;;;;5077718;28;20450;-82
2022/01/10 05:29:36;;;;;;;844.00;751.70;;;1.10;99.90;;;;;;5073610;28;20467;-82
2022/01/10 05:38:13;;;;;;;839.03;747.13;;;1.10;99.90;;;;;;5034683;28;20467;-82
2022/01/10 05:40:40;;;;;;;849.23;757.47;;;1.10;99.90;;;;;;5067367;28;20459;-82
2022/01/10 05:43:13;;;;;;;839.67;748.27;;;1.10;99.90;;;;;;5079004;28;20470;-82
2022/01/10 05:45:58;;;;;;;849.87;756.07;;;1.00;99.90;;;;;;5077495;28;20477;-81
2022/01/10 05:48:30;;;;;;;855.97;761.70;;;1.10;99.90;;;;;;5077151;28;20552;-82
2022/01/10 05:51:34;;;;;;;839.57;747.43;;;1.00;99.90;;;;;;5077092;28;20476;-82
2022/01/10 05:54:33;;;;;;;837.87;745.47;;;1.10;99.90;;;;;;5073148;28;21015;-81
2022/01/10 06:00:26;;;;;;;831.30;739.40;;;1.20;99.90;;;;;;5080032;28;20450;-82
2022/01/10 06:06:12;;;;;;;859.43;765.80;;;1.30;99.90;;;;;;5079109;28;20466;-82
2022/01/10 06:12:31;;;;;;;842.50;749.93;;;1.30;99.90;;;;;;5024042;28;20458;-83
2022/01/10 06:21:39;;;;;;;853.33;743.87;;;1.20;99.90;;;;;;5007227;28;20650;-82
2022/01/10 06:24:29;;;;;;;844.70;751.30;;;1.10;99.90;;;;;;5079847;28;20950;-81
2022/01/10 06:27:05;;;;;;;849.07;755.27;;;1.20;99.90;;;;;;5081406;28;20446;-82
2022/01/10 06:30:07;;;;;;;844.17;752.07;;;1.10;99.90;;;;;;5079624;28;20465;-82
2022/01/10 06:35:46;;;;;;;840.33;748.43;;;0.90;99.90;;;;;;5042044;28;20470;-82
2022/01/10 06:38:23;;;;;;;845.00;754.63;;;0.80;99.90;;;;;;5080911;28;20454;-82
2022/01/10 06:41:22;;;;;;;851.40;761.07;;;0.70;99.90;;;;;;5079796;28;20450;-82
2022/01/10 06:43:56;;;;;;;867.20;776.87;;;0.70;99.90;;;;;;5081677;28;21002;-82
2022/01/10 06:46:46;;;;;;;845.50;755.50;;;0.60;99.90;;;;;;5080279;28;20565;-82
2022/01/10 06:49:36;;;;;;;851.27;760.47;;;0.50;99.90;;;;;;5080137;28;20446;-82
2022/01/10 06:52:03;;;;;;;844.10;754.80;;;0.40;99.90;;;;;;5040969;28;20456;-83
2022/01/10 06:54:44;;;;;;;851.33;762.17;;;0.20;99.90;;;;;;5078287;28;21048;-82
2022/01/10 07:00:23;;;;;;;872.92;784.30;;;0.00;99.90;;;;;;5075539;28;20841;-82
2022/01/10 07:02:57;;;;;;;888.25;799.78;;;-0.20;99.90;;;;;;5077460;28;20198;-81
2022/01/10 07:09:19;;;;;;;897.00;809.33;;;-0.30;99.90;;;;;;4995778;28;20438;-82
2022/01/10 07:22:03;;;;;;;882.60;794.67;;;-0.70;99.90;;;;;;4928431;28;20885;-81
2022/01/10 07:24:34;;;;;;;902.67;812.97;;;-0.60;99.90;;;;;;5014323;28;20461;-82
2022/01/10 07:27:12;;;;;;;898.77;807.53;;;-0.40;99.90;;;;;;5078302;28;20450;-81
2022/01/10 07:29:50;;;;;;;925.80;830.75;;;-0.50;99.90;;;;;;5077003;28;20486;-81
2022/01/10 07:32:19;;;;;;;916.60;825.77;;;-0.50;99.90;;;;;;5076263;28;20271;-81
2022/01/10 07:35:06;;;;;;;877.53;788.67;;;-0.60;99.90;;;;;;5075396;28;20528;-79
2022/01/10 07:37:39;;;;;;;909.67;818.80;;;-0.70;99.90;;;;;;5076936;28;20455;-82
2022/01/10 07:40:17;;;;;;;908.33;820.67;;;-0.70;99.90;;;;;;5078268;28;20493;-82
2022/01/10 07:42:44;;;;;;;913.00;824.47;;;-0.70;99.90;;;;;;5076718;28;20500;-79
2022/01/10 07:45:14;;;;;;;898.00;812.63;;;-0.80;99.90;;;;;;5075758;28;20212;-80
2022/01/10 07:47:44;;;;;;;892.27;808.70;;;-0.80;99.90;;;;;;5076082;28;20479;-82
2022/01/10 07:50:13;;;;;;;909.25;825.42;;;-0.80;99.90;;;;;;5074943;28;20508;-80
2022/01/10 07:53:05;;;;;;;904.70;819.92;;;-1.00;99.90;;;;;;5077137;28;20188;-81
2022/01/10 07:55:32;;;;;;;902.72;818.42;;;-1.00;99.90;;;;;;5075243;28;20223;-84
2022/01/10 07:57:59;;;;;;;896.88;814.17;;;-1.10;99.90;;;;;;5076040;28;20203;-82
2022/01/10 08:00:33;;;;;;;901.10;817.67;;;-1.10;99.90;;;;;;5075679;28;20261;-81
2022/01/10 08:03:04;;;;;;;896.17;813.20;;;-1.00;99.90;;;;;;5076813;28;20195;-82
2022/01/10 08:08:22;;;;;;;904.15;820.55;;;-1.20;99.90;;;;;;5076801;28;20451;-82
2022/01/10 08:11:28;;;;;;;909.17;825.13;;;-1.30;99.90;;;;;;5077061;28;20188;-82
2022/01/10 08:14:14;;;;;;;907.45;824.00;;;-1.30;99.90;;;;;;5076373;28;20474;-81
2022/01/10 08:16:47;;;;;;;887.43;803.33;;;-1.30;99.90;;;;;;5076775;28;20206;-81
2022/01/10 08:19:24;;;;;;;891.37;808.13;;;-1.10;99.90;;;;;;5078163;28;20438;-82
2022/01/10 08:21:58;;;;;;;903.17;819.40;;;-1.20;99.90;;;;;;5077825;28;20439;-82
2022/01/10 08:24:25;;;;;;;905.40;821.00;;;-1.10;99.90;;;;;;5078178;28;20458;-82
2022/01/10 08:29:49;;;;;;;900.33;815.00;;;-1.00;99.90;;;;;;5078018;28;20609;-83
2022/01/10 08:33:11;;;;;;;914.23;827.70;;;-0.90;99.90;;;;;;5077994;28;20227;-87
2022/01/10 08:35:46;;;;;;;912.27;825.70;;;-0.80;99.90;;;;;;5081699;28;20505;-82
2022/01/10 08:38:15;;;;;;;901.40;815.30;;;-0.70;99.90;;;;;;5081208;28;20450;-83
2022/01/10 08:40:42;;;;;;;909.30;821.77;;;-0.70;99.90;;;;;;5082976;28;20517;-83
2022/01/10 08:43:10;;;;;;;904.72;816.97;;;-0.60;99.90;;;;;;5082967;28;20950;-84
2022/01/10 08:45:44;;;;;;;902.03;815.42;;;-0.50;99.90;;;;;;5082290;28;20242;-82
2022/01/10 08:48:14;;;;;;;912.57;824.40;;;-0.50;99.90;;;;;;5082899;28;20232;-83
2022/01/10 08:50:47;;;;;;;912.47;823.17;;;-0.50;99.90;;;;;;5083728;28;20451;-83
2022/01/10 08:53:17;;;;;;;916.47;828.20;;;-0.40;99.90;;;;;;5083732;28;20464;-83
2022/01/10 08:56:08;;;;;;;908.03;819.03;;;-0.40;99.90;;;;;;5077875;28;20475;-86
2022/01/10 08:59:06;;;;;;;901.53;810.93;;;-0.30;99.90;;;;;;5078868;28;20476;-82
2022/01/10 09:01:46;;;;;;;893.50;804.03;;;0.00;99.90;;;;;;5078933;28;20538;-83
2022/01/10 09:04:30;;;;;;;;;;;;;;;;;;;;;
2022/01/10 09:07:13;;;;;;;;;;;;;;;;;;;;;
2022/01/10 09:09:46;;;;;;;896.42;801.58;;;0.20;99.90;;;;;;5076771;28;20458;-84
2022/01/10 09:12:43;;;;;;;;;;;;;;;;;;;;;
2022/01/10 09:15:21;;;;;;;911.80;818.97;;;0.30;99.90;;;;;;5076821;28;20478;-82
2022/01/10 09:18:12;;;;;;;906.13;814.37;;;0.50;99.90;;;;;;5077566;28;20516;-84
2022/01/10 09:21:17;;;;;;;916.17;824.70;;;0.40;99.90;;;;;;5076775;28;20459;-84
2022/01/10 09:24:12;;;;;;;;;;;;;;;;;;;;;
2022/01/10 09:29:22;;;;;;;908.47;815.67;;;0.80;99.90;;;;;;5039727;28;21003;-84
2022/01/10 09:32:29;;;;;;;903.00;809.83;;;0.80;99.90;;;;;;5065772;28;20456;-85
2022/01/10 09:38:26;;;;;;;926.23;831.70;;;0.90;99.90;;;;;;5073492;28;20454;-85
2022/01/10 09:41:00;;;;;;;903.87;810.17;;;1.00;99.90;;;;;;5080570;28;20446;-85
2022/01/10 09:43:27;;;;;;;906.50;812.00;;;1.10;99.90;;;;;;5080795;28;20511;-82
2022/01/10 09:45:56;;;;;;;905.57;810.60;;;1.10;99.90;;;;;;5079958;28;20462;-82
2022/01/10 09:51:32;;;;;;;907.07;810.70;;;1.30;99.90;;;;;;5082987;28;20511;-85
2022/01/10 09:54:01;;;;;;;890.03;794.17;;;1.40;99.90;;;;;;5083306;28;20450;-84
2022/01/10 09:56:30;;;;;;;879.83;783.43;;;1.40;99.90;;;;;;5085318;28;20454;-84
2022/01/10 09:59:05;;;;;;;890.10;793.70;;;1.50;99.90;;;;;;5084992;28;20450;-84
2022/01/10 10:01:34;;;;;;;871.90;776.60;;;1.50;99.90;;;;;;5083834;28;20458;-84
2022/01/10 10:04:05;;;;;;;869.77;774.77;;;1.60;99.90;;;;;;5084297;28;20443;-85
2022/01/10 10:06:51;;;;;;;869.93;775.10;;;1.80;99.90;;;;;;5083978;28;20454;-84
2022/01/10 10:09:21;;;;;;;860.90;766.73;;;1.90;99.90;;;;;;5081843;28;20465;-84
2022/01/10 10:11:53;;;;;;;870.30;775.40;;;1.80;99.90;;;;;;5083472;28;20454;-84
2022/01/10 10:14:27;;;;;;;879.07;778.40;;;2.00;99.90;;;;;;5083657;28;20477;-84
2022/01/10 10:17:06;;;;;;;863.00;769.20;;;2.00;99.90;;;;;;5083325;28;20468;-84
2022/01/10 10:19:43;;;;;;;866.50;771.60;;;2.10;99.90;;;;;;5081971;28;20456;-84
2022/01/10 10:22:16;;;;;;;870.47;774.53;;;2.10;99.90;;;;;;5081203;28;20918;-84
2022/01/10 10:24:57;;;;;;;;;;;;;;;;;;;;;
2022/01/10 10:27:28;;;;;;;859.37;764.27;;;2.40;99.90;;;;;;5082606;28;20941;-84
2022/01/10 10:30:20;;;;;;;;;;;;;;;;;;;;;
2022/01/10 10:33:14;;;;;;;855.97;759.20;;;2.40;99.90;;;;;;5072522;28;20455;-84
2022/01/10 10:36:08;;;;;;;857.20;762.30;;;2.60;99.90;;;;;;5079873;28;20487;-84
2022/01/10 10:38:52;;;;;;;856.90;762.17;;;2.60;99.90;;;;;;5080048;28;20519;-85
2022/01/10 10:41:29;;;;;;;862.63;768.27;;;2.80;99.90;;;;;;5079249;28;20447;-84
2022/01/10 10:46:54;;;;;;;867.27;773.47;;;3.00;99.90;;;;;;5076174;28;20461;-84
2022/01/10 10:49:54;;;;;;;864.10;770.43;;;3.00;99.90;;;;;;5076777;28;20495;-84
2022/01/10 10:53:19;;;;;;;869.93;776.53;;;3.10;99.90;;;;;;5072399;28;20496;-84
2022/01/10 10:59:49;;;;;;;;;;;;;;;;;;;;;
2022/01/10 11:05:23;;;;;;;854.37;761.23;;;3.60;99.90;;;;;;5048194;28;20828;-84
2022/01/10 11:07:51;;;;;;;867.67;774.70;;;3.60;99.90;;;;;;5077936;28;20946;-87
2022/01/10 11:14:04;;;;;;;866.23;774.00;;;3.80;99.90;;;;;;5076094;28;20451;-85
2022/01/10 11:20:57;;;;;;;856.60;766.40;;;4.10;99.90;;;;;;5062231;28;20450;-84
2022/01/10 11:34:45;;;;;;;891.93;805.00;;;4.50;99.90;;;;;;4957642;28;20488;-88
2022/01/10 11:44:55;;;;;;;;;;;;;;;;;;;;;
2022/01/10 11:47:32;;;;;;;842.07;788.13;;;6.20;99.90;;;;;;5069581;28;20477;-86
2022/01/10 11:50:47;;;;;;;636.57;603.53;;;7.10;99.90;;;;;;5073706;28;20454;-86
2022/01/10 11:53:30;;;;;;;223.63;212.10;;;7.70;99.90;;;;;;5012264;28;20449;-86
2022/01/10 11:56:02;;;;;;;137.40;126.83;;;8.40;99.90;;;;;;5072798;28;20500;-86
2022/01/10 11:58:44;;;;;;;78.33;72.73;;;8.80;98.10;;;;;;5073051;28;20458;-86
2022/01/10 12:02:03;;;;;;;;;;;;;;;;;;;;;
2022/01/10 12:04:51;;;;;;;32.47;28.33;;;9.60;95.90;;;;;;5027351;28;20797;-87
2022/01/10 12:07:32;;;;;;;33.63;17.80;;;10.10;97.60;;;;;;5073844;28;20447;-87
2022/01/10 12:10:31;;;;;;;25.77;14.83;;;10.50;94.00;;;;;;5073869;28;20457;-87
2022/01/10 12:16:44;;;;;;;30.57;13.20;;;10.60;76.60;;;;;;5071061;28;20555;-87
2022/01/10 12:19:39;;;;;;;23.10;10.33;;;11.00;77.80;;;;;;5073296;28;20452;-87
2022/01/10 12:22:41;;;;;;;34.10;12.27;;;11.20;71.50;;;;;;5073680;28;20455;-86
2022/01/10 12:25:57;;;;;;;30.27;10.83;;;10.90;66.30;;;;;;5073357;28;20492;-88
2022/01/10 12:28:46;;;;;;;;;;;;;;;;;;;;;
2022/01/10 12:34:49;;;;;;;;;;;;;;;;;;;;;
2022/01/10 12:37:39;;;;;;;21.97;10.80;;;11.60;69.30;;;;;;5073391;28;20523;-85
2022/01/10 12:50:54;;;;;;;;;;;;;;;;;;;;;
2022/01/10 12:57:06;;;;;;;25.80;12.07;;;11.60;67.30;;;;;;5072053;28;20491;-86
2022/01/10 13:00:05;;;;;;;33.07;11.23;;;11.50;62.30;;;;;;5072407;28;20459;-86
2022/01/10 13:03:06;;;;;;;29.10;12.53;;;11.70;67.40;;;;;;5016611;28;20565;-86
2022/01/10 13:19:27;;;;;;;29.33;14.90;;;12.10;67.40;;;;;;4986826;28;20450;-85
2022/01/10 13:35:36;;;;;;;30.10;11.33;;;11.20;53.70;;;;;;5013075;28;20476;-85
2022/01/10 13:48:16;;;;;;;;;;;;;;;;;;;;;
2022/01/10 13:55:06;;;;;;;;;;;;;;;;;;;;;
2022/01/10 14:04:36;;;;;;;35.33;13.57;;;6.70;79.70;;;;;;4962940;28;20469;-84
2022/01/10 14:07:21;;;;;;;28.30;14.20;;;6.30;83.70;;;;;;5055532;28;20478;-85
2022/01/10 14:10:21;;;;;;;33.53;18.30;;;6.00;89.80;;;;;;5057095;28;20443;-84
2022/01/10 14:16:44;;;;;;;;;;;;;;;;;;;;;
2022/01/10 14:19:48;;;;;;;;;;;;;;;;;;;;;
2022/01/10 14:32:23;;;;;;;220.03;209.43;;;4.50;99.90;;;;;;4940662;29;20459;-85
2022/01/10 14:34:59;;;;;;;338.20;323.73;;;4.40;99.90;;;;;;4950571;28;20477;-84
2022/01/10 14:38:36;;;;;;;459.17;440.33;;;4.20;99.90;;;;;;5060203;28;20470;-84
2022/01/10 14:48:08;;;;;;;771.47;720.25;;;3.70;99.90;;;;;;4989290;28;20535;-84
2022/01/10 14:50:44;;;;;;;783.40;735.30;;;3.60;99.90;;;;;;5056581;28;20190;-85
2022/01/10 14:59:33;;;;;;;807.83;750.43;;;3.30;99.90;;;;;;5052100;28;20436;-86
2022/01/10 15:02:13;;;;;;;796.57;738.17;;;3.20;99.90;;;;;;5059126;28;20451;-85
2022/01/10 15:05:19;;;;;;;783.77;724.20;;;3.10;99.90;;;;;;5056796;28;20463;-85
2022/01/10 15:14:54;;;;;;;767.37;702.10;;;3.20;99.90;;;;;;4990747;28;20474;-85
2022/01/10 15:17:40;;;;;;;767.70;703.60;;;3.00;99.90;;;;;;4997195;28;20493;-84
2022/01/10 15:20:28;;;;;;;764.90;701.73;;;2.90;99.90;;;;;;5047963;28;20456;-84
2022/01/10 15:23:36;;;;;;;757.03;695.70;;;2.90;99.90;;;;;;5060508;28;20512;-85
2022/01/10 15:26:34;;;;;;;758.27;697.70;;;2.70;99.90;;;;;;5060795;28;20558;-83
2022/01/10 15:29:22;;;;;;;;;;;;;;;;;;;;;
2022/01/10 15:32:26;;;;;;;754.83;694.07;;;2.50;99.90;;;;;;5054524;28;20987;-84
2022/01/10 15:34:58;;;;;;;755.47;694.67;;;2.40;99.90;;;;;;5053931;28;20494;-83
2022/01/10 15:37:50;;;;;;;757.27;689.87;;;2.30;99.90;;;;;;5060656;28;20467;-84
2022/01/10 15:40:35;;;;;;;762.57;694.97;;;2.20;99.90;;;;;;5058380;28;20459;-84
2022/01/10 15:43:58;;;;;;;;;;;;;;;;;;;;;
2022/01/10 15:57:17;;;;;;;;;;;;;;;;;;;;;
2022/01/10 16:30:30;;;;;;;793.23;712.03;;;0.90;99.90;;;;;;5072831;28;20493;-84
2022/01/10 16:37:09;;;;;;;781.07;701.67;;;0.90;99.90;;;;;;5309999;22;20849;-84
2022/01/10 16:46:25;;;;;;;781.03;702.07;;;0.30;99.90;;;;;;5035772;28;20517;-84
2022/01/10 16:49:49;;;;;;;800.10;717.20;;;0.20;99.90;;;;;;5055621;28;20455;-84
2022/01/10 16:55:58;;;;;;;786.87;706.30;;;0.10;99.90;;;;;;4966770;28;21106;-84
2022/01/10 17:08:49;;;;;;;827.90;743.40;;;-0.10;99.90;;;;;;4959421;28;20467;-86
2022/01/10 17:11:48;;;;;;;827.37;743.30;;;-0.10;99.90;;;;;;4973375;28;20477;-84
2022/01/10 17:17:01;;;;;;;832.30;748.83;;;-0.10;99.90;;;;;;5032630;28;20479;-84
2022/01/10 17:22:16;;;;;;;831.90;749.60;;;-0.20;99.90;;;;;;5034082;28;20448;-84
2022/01/10 17:28:00;;;;;;;820.35;739.45;;;-0.20;99.90;;;;;;5027841;28;20432;-86
2022/01/10 17:30:28;;;;;;;836.03;752.23;;;-0.20;99.90;;;;;;5033258;28;20198;-83
2022/01/10 17:32:55;;;;;;;847.20;762.37;;;-0.40;99.90;;;;;;5033375;28;20452;-84
2022/01/10 17:35:21;;;;;;;834.03;750.43;;;-0.40;99.90;;;;;;5033559;28;20468;-86
2022/01/10 17:37:48;;;;;;;856.20;772.20;;;-0.50;99.90;;;;;;5033343;28;20491;-84
2022/01/10 17:40:15;;;;;;;842.60;760.30;;;-0.60;99.90;;;;;;5033197;28;20448;-83
2022/01/10 17:42:44;;;;;;;824.78;744.03;;;-0.60;99.90;;;;;;5033541;28;20463;-84
2022/01/10 17:45:15;;;;;;;831.43;750.27;;;-0.70;99.90;;;;;;5033488;28;20209;-84
2022/01/10 17:47:43;;;;;;;838.13;756.40;;;-0.60;99.90;;;;;;5033419;28;20937;-84
2022/01/10 17:50:11;;;;;;;851.23;768.87;;;-0.70;99.90;;;;;;5033792;28;20452;-84
2022/01/10 17:52:43;;;;;;;866.13;783.27;;;-0.80;99.90;;;;;;5033390;28;20454;-84
2022/01/10 17:55:12;;;;;;;852.27;771.13;;;-0.70;99.90;;;;;;5035126;28;20472;-83
2022/01/10 17:57:40;;;;;;;887.03;803.23;;;-0.70;99.90;;;;;;5035354;28;20472;-84
2022/01/10 18:00:10;;;;;;;876.72;793.38;;;-0.80;99.90;;;;;;5036892;28;20459;-84
2022/01/10 18:02:39;;;;;;;849.90;771.00;;;-0.80;99.90;;;;;;5036961;28;20688;-84
2022/01/10 18:05:07;;;;;;;851.40;770.90;;;-0.90;99.90;;;;;;5036534;28;20984;-84
2022/01/10 18:07:35;;;;;;;849.77;770.20;;;-0.90;99.90;;;;;;5036830;28;20452;-84
2022/01/10 18:10:02;;;;;;;847.07;765.87;;;-0.90;99.90;;;;;;5036954;28;20543;-84
2022/01/10 18:12:28;;;;;;;843.20;762.50;;;-0.90;99.90;;;;;;5036937;28;20456;-84
2022/01/10 18:14:55;;;;;;;842.77;762.50;;;-0.90;99.90;;;;;;5036627;28;20490;-84
2022/01/10 18:17:22;;;;;;;834.45;754.85;;;-0.90;99.90;;;;;;5037197;28;20483;-84
2022/01/10 18:19:51;;;;;;;840.10;760.27;;;-1.00;99.90;;;;;;5037058;28;20220;-83
2022/01/10 18:22:19;;;;;;;846.60;766.20;;;-1.10;99.90;;;;;;5034993;28;20491;-84
2022/01/10 18:24:46;;;;;;;879.37;793.70;;;-1.10;99.90;;;;;;5035969;28;20480;-84
2022/01/10 18:27:16;;;;;;;868.17;782.30;;;-1.10;99.90;;;;;;5036317;28;20444;-85
2022/01/10 18:29:50;;;;;;;875.67;789.38;;;-1.20;99.90;;;;;;5036386;28;20454;-86
2022/01/10 18:32:16;;;;;;;864.57;783.00;;;-1.10;99.90;;;;;;5036963;28;20288;-84
2022/01/10 18:34:43;;;;;;;861.45;781.00;;;-1.20;99.90;;;;;;5035686;28;20554;-84
2022/01/10 18:37:12;;;;;;;875.37;794.77;;;-1.40;99.90;;;;;;5035975;28;20248;-84
2022/01/10 18:39:38;;;;;;;868.17;788.03;;;-1.40;99.90;;;;;;5035961;28;20539;-84
2022/01/10 18:42:08;;;;;;;871.25;787.25;;;-1.40;99.90;;;;;;5036627;28;20288;-84
2022/01/10 18:44:35;;;;;;;860.50;777.28;;;-1.30;99.90;;;;;;5036355;28;20228;-84
2022/01/10 18:47:04;;;;;;;888.10;802.87;;;-1.30;99.90;;;;;;5036310;28;20190;-85